createdAt,value
2022-11-19T00:02:04.610Z,100.00
2022-11-19T00:04:32.533Z,100.00
2022-11-19T00:07:00.481Z,100.00
2022-11-19T00:09:28.294Z,100.00
2022-11-19T00:12:14.637Z,100.00
2022-11-19T00:14:42.453Z,100.00
2022-11-19T00:17:10.407Z,100.00
2022-11-19T00:19:38.350Z,100.00
2022-11-19T00:22:06.096Z,100.00
2022-11-19T00:24:33.887Z,100.00
2022-11-19T00:27:01.695Z,100.00
2022-11-19T00:29:29.536Z,100.00
2022-11-19T00:31:57.324Z,100.00
2022-11-19T00:34:25.072Z,100.00
2022-11-19T00:36:52.916Z,100.00
2022-11-19T00:39:21.058Z,100.00
2022-11-19T00:41:49.166Z,100.00
2022-11-19T00:44:17.005Z,100.00
2022-11-19T00:46:44.697Z,100.00
2022-11-19T00:49:12.403Z,100.00
2022-11-19T00:51:40.134Z,100.00
2022-11-19T00:54:07.803Z,100.00
2022-11-19T00:56:37.836Z,100.00
2022-11-19T00:59:05.797Z,100.00
2022-11-19T01:01:33.700Z,100.00
2022-11-19T01:04:01.552Z,100.00
2022-11-19T01:06:29.521Z,100.00
2022-11-19T01:08:58.152Z,100.00
2022-11-19T01:11:29.122Z,100.00
2022-11-19T01:13:58.881Z,100.00
2022-11-19T01:16:38.027Z,100.00
2022-11-19T01:19:07.853Z,100.00
2022-11-19T01:21:36.717Z,100.00
2022-11-19T01:24:05.848Z,100.00
2022-11-19T01:26:33.795Z,100.00
2022-11-19T01:29:01.572Z,100.00
2022-11-19T01:31:30.365Z,100.00
2022-11-19T01:33:58.727Z,100.00
2022-11-19T01:36:28.749Z,100.00
2022-11-19T01:38:57.428Z,100.00
2022-11-19T01:41:28.692Z,100.00
2022-11-19T01:44:02.232Z,100.00
2022-11-19T01:46:38.659Z,100.00
2022-11-19T01:49:19.439Z,100.00
2022-11-19T01:51:55.323Z,100.00
2022-11-19T01:54:37.523Z,100.00
2022-11-19T01:57:10.121Z,100.00
2022-11-19T01:59:38.741Z,100.00
2022-11-19T02:02:06.550Z,100.00
2022-11-19T02:04:35.576Z,100.00
2022-11-19T02:07:04.338Z,100.00
2022-11-19T02:09:33.157Z,100.00
2022-11-19T02:12:30.951Z,100.00
2022-11-19T02:15:25.002Z,100.00
2022-11-19T02:18:26.978Z,100.00
2022-11-19T02:21:16.617Z,100.00
2022-11-19T02:24:06.233Z,100.00
2022-11-19T02:26:53.775Z,100.00
2022-11-19T02:29:30.549Z,100.00
2022-11-19T02:32:17.279Z,100.00
2022-11-19T02:34:57.505Z,100.00
2022-11-19T02:37:30.936Z,100.00
2022-11-19T02:40:10.189Z,100.00
2022-11-19T02:43:14.344Z,100.00
2022-11-19T02:45:53.394Z,100.00
2022-11-19T02:48:34.373Z,100.00
2022-11-19T02:51:04.375Z,100.00
2022-11-19T02:53:33.492Z,100.00
2022-11-19T02:56:35.788Z,100.00
2022-11-19T02:59:22.317Z,100.00
2022-11-19T03:02:09.804Z,100.00
2022-11-19T03:04:37.833Z,100.00
2022-11-19T03:07:17.042Z,100.00
2022-11-19T03:09:53.077Z,100.00
2022-11-19T03:12:44.784Z,100.00
2022-11-19T03:15:51.893Z,100.00
2022-11-19T03:18:27.547Z,100.00
2022-11-19T03:21:03.717Z,100.00
2022-11-19T03:23:42.574Z,100.00
2022-11-19T03:26:31.054Z,100.00
2022-11-19T03:29:03.893Z,100.00
2022-11-19T03:31:34.586Z,100.00
2022-11-19T03:34:09.846Z,100.00
2022-11-19T03:36:41.039Z,100.00
2022-11-19T03:39:13.241Z,100.00
2022-11-19T03:41:43.470Z,100.00
2022-11-19T03:44:19.858Z,100.00
2022-11-19T03:46:52.112Z,100.00
2022-11-19T03:49:27.537Z,100.00
2022-11-19T03:52:17.591Z,100.00
2022-11-19T03:54:45.626Z,100.00
2022-11-19T03:57:17.173Z,100.00
2022-11-19T03:59:46.349Z,100.00
2022-11-19T04:02:15.110Z,100.00
2022-11-19T04:04:43.655Z,100.00
2022-11-19T04:07:20.756Z,100.00
2022-11-19T04:09:49.534Z,100.00
2022-11-19T04:12:22.977Z,100.00
2022-11-19T04:14:52.186Z,100.00
2022-11-19T04:17:20.193Z,100.00
2022-11-19T04:19:48.264Z,100.00
2022-11-19T04:22:16.039Z,100.00
2022-11-19T04:24:43.769Z,100.00
2022-11-19T04:27:11.576Z,100.00
2022-11-19T04:29:39.300Z,100.00
2022-11-19T04:32:07.019Z,100.00
2022-11-19T04:34:34.769Z,100.00
2022-11-19T04:37:02.524Z,100.00
2022-11-19T04:39:30.373Z,100.00
2022-11-19T04:41:58.222Z,100.00
2022-11-19T04:44:26.131Z,100.00
2022-11-19T04:46:54.275Z,100.00
2022-11-19T04:49:22.246Z,100.00
2022-11-19T04:51:50.089Z,100.00
2022-11-19T04:54:17.918Z,100.00
2022-11-19T04:56:45.611Z,100.00
2022-11-19T04:59:13.426Z,100.00
2022-11-19T05:01:41.369Z,100.00
2022-11-19T05:04:09.825Z,100.00
2022-11-19T05:06:38.753Z,100.00
2022-11-19T05:09:06.834Z,100.00
2022-11-19T05:11:34.592Z,100.00
2022-11-19T05:14:02.356Z,100.00
2022-11-19T05:16:30.235Z,100.00
2022-11-19T05:18:58.141Z,100.00
2022-11-19T05:21:25.982Z,100.00
2022-11-19T05:23:53.753Z,100.00
2022-11-19T05:26:21.880Z,100.00
2022-11-19T05:28:50.192Z,100.00
2022-11-19T05:31:18.101Z,100.00
2022-11-19T05:33:46.728Z,100.00
2022-11-19T05:36:14.651Z,100.00
2022-11-19T05:38:42.506Z,100.00
2022-11-19T05:41:10.211Z,100.00
2022-11-19T05:43:37.914Z,100.00
2022-11-19T05:46:05.919Z,100.00
2022-11-19T05:48:34.552Z,100.00
2022-11-19T05:51:02.387Z,100.00
2022-11-19T05:54:42.136Z,100.00
2022-11-19T05:57:09.950Z,100.00
2022-11-19T05:59:43.555Z,100.00
2022-11-19T06:02:12.209Z,100.00
2022-11-19T06:04:42.832Z,100.00
2022-11-19T06:07:10.672Z,100.00
2022-11-19T06:09:39.021Z,100.00
2022-11-19T06:12:07.103Z,100.00
2022-11-19T06:14:34.891Z,100.00
2022-11-19T06:17:03.027Z,100.00
2022-11-19T06:19:30.905Z,100.00
2022-11-19T06:21:59.015Z,100.00
2022-11-19T06:24:27.033Z,100.00
2022-11-19T06:26:54.953Z,100.00
2022-11-19T06:29:22.891Z,100.00
2022-11-19T06:31:50.813Z,100.00
2022-11-19T06:34:18.887Z,100.00
2022-11-19T06:36:50.533Z,100.00
2022-11-19T06:39:19.725Z,100.00
2022-11-19T06:41:48.885Z,100.00
2022-11-19T06:44:17.257Z,100.00
2022-11-19T06:46:45.072Z,100.00
2022-11-19T06:49:18.390Z,100.00
2022-11-19T06:51:48.033Z,100.00
2022-11-19T06:54:17.268Z,100.00
2022-11-19T06:56:45.089Z,100.00
2022-11-19T06:59:12.927Z,100.00
2022-11-19T07:01:40.986Z,100.00
2022-11-19T07:04:08.864Z,100.00
2022-11-19T07:06:37.198Z,100.00
2022-11-19T07:09:47.404Z,100.00
2022-11-19T07:12:15.321Z,100.00
2022-11-19T07:14:44.673Z,100.00
2022-11-19T07:17:14.383Z,100.00
2022-11-19T07:19:43.606Z,100.00
2022-11-19T07:22:12.267Z,100.00
2022-11-19T07:24:40.885Z,100.00
2022-11-19T07:27:09.494Z,100.00
2022-11-19T07:29:39.780Z,100.00
2022-11-19T07:32:08.978Z,100.00
2022-11-19T07:34:38.547Z,100.00
2022-11-19T07:37:06.694Z,100.00
2022-11-19T07:39:34.904Z,100.00
2022-11-19T07:42:21.580Z,100.00
2022-11-19T07:44:55.085Z,100.00
2022-11-19T07:47:23.240Z,100.00
2022-11-19T07:49:51.386Z,100.00
2022-11-19T07:52:19.414Z,100.00
2022-11-19T07:54:47.249Z,100.00
2022-11-19T07:57:15.308Z,100.00
2022-11-19T07:59:43.396Z,100.00
2022-11-19T08:02:12.570Z,100.00
2022-11-19T08:04:41.239Z,100.00
2022-11-19T08:07:09.343Z,100.00
2022-11-19T08:09:37.398Z,100.00
2022-11-19T08:12:05.712Z,100.00
2022-11-19T08:14:34.146Z,100.00
2022-11-19T08:17:22.113Z,100.00
2022-11-19T08:19:50.227Z,100.00
2022-11-19T08:22:18.513Z,100.00
2022-11-19T08:24:46.643Z,100.00
2022-11-19T08:27:15.247Z,100.00
2022-11-19T08:29:43.481Z,100.00
2022-11-19T08:32:11.667Z,100.00
2022-11-19T08:34:39.880Z,100.00
2022-11-19T08:37:08.179Z,100.00
2022-11-19T08:39:36.095Z,100.00
2022-11-19T08:42:23.023Z,100.00
2022-11-19T08:44:53.566Z,100.00
2022-11-19T08:47:22.063Z,100.00
2022-11-19T08:49:50.308Z,100.00
2022-11-19T08:52:18.529Z,100.00
2022-11-19T08:54:46.748Z,100.00
2022-11-19T08:57:15.226Z,100.00
2022-11-19T08:59:43.410Z,100.00
2022-11-19T09:02:11.678Z,100.00
2022-11-19T09:04:41.883Z,100.00
2022-11-19T09:07:10.758Z,100.00
2022-11-19T09:09:39.316Z,100.00
2022-11-19T09:12:08.539Z,100.00
2022-11-19T09:14:37.644Z,100.00
2022-11-19T09:17:07.422Z,100.00
2022-11-19T09:19:39.184Z,100.00
2022-11-19T09:22:08.211Z,100.00
2022-11-19T09:24:37.689Z,100.00
2022-11-19T09:27:06.358Z,100.00
2022-11-19T09:29:35.554Z,100.00
2022-11-19T09:32:04.967Z,100.00
2022-11-19T09:34:35.377Z,100.00
2022-11-19T09:37:03.895Z,100.00
2022-11-19T09:39:33.506Z,100.00
2022-11-19T09:42:25.415Z,100.00
2022-11-19T09:45:21.574Z,100.00
2022-11-19T09:48:17.884Z,100.00
2022-11-19T09:50:53.711Z,100.00
2022-11-19T09:53:24.146Z,100.00
2022-11-19T09:55:54.412Z,100.00
2022-11-19T09:58:45.570Z,100.00
2022-11-19T10:01:20.356Z,100.00
2022-11-19T10:03:52.375Z,100.00
2022-11-19T10:06:40.145Z,100.00
2022-11-19T10:09:45.173Z,100.00
2022-11-19T10:12:28.059Z,100.00
2022-11-19T10:15:26.902Z,100.00
2022-11-19T10:18:19.092Z,100.00
2022-11-19T10:21:04.285Z,100.00
2022-11-19T10:23:49.284Z,100.00
2022-11-19T10:26:23.632Z,100.00
2022-11-19T10:28:57.119Z,100.00
2022-11-19T10:31:43.880Z,99.54
2022-11-19T10:34:19.495Z,98.88
2022-11-19T10:37:02.876Z,98.67
2022-11-19T10:39:48.654Z,93.96
2022-11-19T10:42:29.049Z,91.46
2022-11-19T10:45:06.393Z,91.32
2022-11-19T10:47:37.763Z,93.43
2022-11-19T10:50:11.268Z,89.95
2022-11-19T10:52:44.548Z,90.33
2022-11-19T10:55:28.963Z,87.42
2022-11-19T10:58:07.332Z,83.15
2022-11-19T11:00:38.056Z,81.36
2022-11-19T11:03:17.134Z,81.16
2022-11-19T11:06:07.461Z,77.65
2022-11-19T11:08:53.039Z,78.55
2022-11-19T11:12:10.649Z,78.12
2022-11-19T11:14:53.867Z,77.76
2022-11-19T11:17:29.192Z,75.36
2022-11-19T11:20:08.802Z,74.00
2022-11-19T11:22:37.405Z,72.40
2022-11-19T11:25:25.022Z,72.86
2022-11-19T11:28:35.763Z,73.00
2022-11-19T11:31:07.009Z,73.46
2022-11-19T11:33:56.061Z,74.95
2022-11-19T11:36:31.254Z,71.65
2022-11-19T11:39:01.768Z,68.50
2022-11-19T11:44:31.407Z,67.74
2022-11-19T11:47:03.526Z,68.57
2022-11-19T11:49:37.525Z,66.59
2022-11-19T11:52:09.654Z,66.04
2022-11-19T11:54:53.784Z,65.69
2022-11-19T11:57:25.433Z,65.65
2022-11-19T11:59:54.189Z,65.40
2022-11-19T12:02:27.364Z,66.73
2022-11-19T12:04:59.721Z,66.90
2022-11-19T12:07:54.332Z,67.52
2022-11-19T12:10:34.421Z,68.40
2022-11-19T12:13:44.240Z,69.82
2022-11-19T12:16:23.037Z,69.81
2022-11-19T12:19:09.908Z,70.06
2022-11-19T12:21:47.928Z,69.91
2022-11-19T12:24:38.454Z,70.69
2022-11-19T12:27:31.988Z,72.22
2022-11-19T12:30:07.579Z,72.13
2022-11-19T12:33:17.083Z,70.67
2022-11-19T12:36:10.834Z,69.65
2022-11-19T12:39:02.040Z,69.39
2022-11-19T12:41:49.093Z,68.89
2022-11-19T12:44:45.731Z,68.97
2022-11-19T12:47:23.187Z,69.66
2022-11-19T12:50:03.761Z,70.44
2022-11-19T12:52:57.945Z,71.03
2022-11-19T12:56:14.594Z,71.58
2022-11-19T12:58:46.360Z,70.69
2022-11-19T13:01:26.953Z,71.44
2022-11-19T13:04:18.272Z,72.82
2022-11-19T13:07:03.300Z,76.33
2022-11-19T13:09:44.497Z,80.36
2022-11-19T13:12:23.159Z,81.43
2022-11-19T13:15:01.129Z,83.89
2022-11-19T13:17:44.726Z,83.62
2022-11-19T13:20:44.758Z,86.34
2022-11-19T13:23:47.663Z,91.72
2022-11-19T13:26:20.957Z,100.00
2022-11-19T13:29:25.234Z,100.00
2022-11-19T13:32:01.361Z,100.00
2022-11-19T13:34:39.553Z,100.00
2022-11-19T13:37:18.050Z,100.00
2022-11-19T13:39:56.182Z,100.00
2022-11-19T13:42:44.350Z,100.00
2022-11-19T13:45:18.817Z,100.00
2022-11-19T13:47:58.356Z,100.00
2022-11-19T13:50:32.343Z,100.00
2022-11-19T13:53:12.794Z,100.00
2022-11-19T13:55:46.280Z,100.00
2022-11-19T13:58:15.225Z,100.00
2022-11-19T14:01:08.799Z,100.00
2022-11-19T14:03:56.052Z,100.00
2022-11-19T14:06:44.686Z,100.00
2022-11-19T14:09:24.827Z,100.00
2022-11-19T14:12:25.755Z,100.00
2022-11-19T14:15:39.049Z,100.00
2022-11-19T14:18:38.858Z,100.00
2022-11-19T14:22:01.205Z,100.00
2022-11-19T14:24:48.399Z,100.00
2022-11-19T14:27:29.734Z,100.00
2022-11-19T14:30:05.048Z,100.00
2022-11-19T14:32:47.939Z,100.00
2022-11-19T14:35:24.419Z,100.00
2022-11-19T14:37:58.907Z,100.00
2022-11-19T14:40:35.480Z,100.00
2022-11-19T14:43:25.244Z,100.00
2022-11-19T14:46:03.489Z,100.00
2022-11-19T14:48:41.481Z,100.00
2022-11-19T14:51:19.624Z,100.00
2022-11-19T14:53:57.612Z,100.00
2022-11-19T14:56:26.904Z,100.00
2022-11-19T14:59:28.203Z,100.00
2022-11-19T15:01:56.329Z,100.00
2022-11-19T15:04:35.945Z,100.00
2022-11-19T15:07:12.501Z,100.00
2022-11-19T15:10:02.974Z,100.00
2022-11-19T15:12:46.480Z,100.00
2022-11-19T15:15:22.879Z,100.00
2022-11-19T15:18:28.095Z,100.00
2022-11-19T15:21:11.615Z,100.00
2022-11-19T15:23:47.356Z,100.00
2022-11-19T15:26:25.292Z,100.00
2022-11-19T15:29:41.249Z,100.00
2022-11-19T15:32:12.798Z,100.00
2022-11-19T15:35:11.284Z,100.00
2022-11-19T15:37:49.842Z,100.00
2022-11-19T15:40:29.868Z,100.00
2022-11-19T15:43:04.864Z,100.00
2022-11-19T15:45:40.184Z,100.00
2022-11-19T15:48:30.428Z,100.00
2022-11-19T15:51:00.822Z,100.00
2022-11-19T15:53:30.855Z,100.00
2022-11-19T15:56:06.269Z,100.00
2022-11-19T15:58:41.782Z,100.00
2022-11-19T16:01:18.362Z,100.00
2022-11-19T16:03:48.040Z,100.00
2022-11-19T16:06:17.693Z,100.00
2022-11-19T16:08:52.031Z,100.00
2022-11-19T16:11:42.811Z,100.00
2022-11-19T16:14:41.103Z,100.00
2022-11-19T16:17:43.035Z,100.00
2022-11-19T16:20:22.240Z,100.00
2022-11-19T16:23:06.891Z,100.00
2022-11-19T16:25:35.886Z,100.00
2022-11-19T16:28:08.693Z,100.00
2022-11-19T16:30:49.984Z,100.00
2022-11-19T16:33:29.934Z,100.00
2022-11-19T16:36:19.977Z,100.00
2022-11-19T16:38:51.738Z,100.00
2022-11-19T16:41:41.926Z,100.00
2022-11-19T16:44:15.965Z,100.00
2022-11-19T16:46:45.588Z,100.00
2022-11-19T16:49:31.272Z,100.00
2022-11-19T16:52:00.877Z,100.00
2022-11-19T16:54:50.368Z,100.00
2022-11-19T16:57:24.365Z,100.00
2022-11-19T16:59:59.422Z,100.00
2022-11-19T17:02:39.714Z,100.00
2022-11-19T17:05:13.159Z,100.00
2022-11-19T17:07:49.070Z,100.00
2022-11-19T17:10:34.503Z,100.00
2022-11-19T17:13:15.837Z,100.00
2022-11-19T17:15:51.858Z,100.00
2022-11-19T17:18:30.611Z,100.00
2022-11-19T17:20:58.743Z,100.00
2022-11-19T17:23:31.757Z,100.00
2022-11-19T17:26:07.246Z,100.00
2022-11-19T17:28:47.034Z,100.00
2022-11-19T17:31:42.558Z,100.00
2022-11-19T17:34:25.265Z,100.00
2022-11-19T17:36:55.290Z,100.00
2022-11-19T17:39:26.258Z,100.00
2022-11-19T17:42:15.148Z,100.00
2022-11-19T17:44:44.194Z,100.00
2022-11-19T17:47:23.602Z,100.00
2022-11-19T17:49:53.572Z,100.00
2022-11-19T17:52:33.779Z,100.00
2022-11-19T17:55:20.081Z,100.00
2022-11-19T17:57:50.527Z,100.00
2022-11-19T18:00:20.659Z,100.00
2022-11-19T18:02:49.648Z,100.00
2022-11-19T18:05:21.601Z,100.00
2022-11-19T18:07:51.303Z,100.00
2022-11-19T18:10:21.456Z,100.00
2022-11-19T18:12:53.314Z,100.00
2022-11-19T18:15:22.018Z,100.00
2022-11-19T18:17:52.170Z,100.00
2022-11-19T18:20:22.842Z,100.00
2022-11-19T18:22:52.571Z,100.00
2022-11-19T18:25:24.898Z,100.00
2022-11-19T18:27:56.592Z,100.00
2022-11-19T18:30:26.869Z,100.00
2022-11-19T18:33:19.087Z,100.00
2022-11-19T18:35:55.222Z,100.00
2022-11-19T18:38:29.387Z,100.00
2022-11-19T18:41:04.725Z,100.00
2022-11-19T18:43:52.759Z,100.00
2022-11-19T18:46:31.728Z,100.00
2022-11-19T18:49:01.222Z,100.00
2022-11-19T18:51:31.750Z,100.00
2022-11-19T18:54:01.905Z,100.00
2022-11-19T18:56:30.852Z,100.00
2022-11-19T18:59:03.348Z,100.00
2022-11-19T19:01:37.145Z,100.00
2022-11-19T19:04:06.780Z,100.00
2022-11-19T19:06:36.487Z,100.00
2022-11-19T19:09:05.970Z,100.00
2022-11-19T19:11:56.389Z,100.00
2022-11-19T19:14:25.336Z,100.00
2022-11-19T19:16:54.314Z,100.00
2022-11-19T19:19:25.676Z,100.00
2022-11-19T19:21:55.377Z,100.00
2022-11-19T19:24:27.826Z,100.00
2022-11-19T19:26:57.328Z,100.00
2022-11-19T19:29:26.634Z,100.00
2022-11-19T19:31:59.259Z,100.00
2022-11-19T19:34:28.985Z,100.00
2022-11-19T19:36:59.002Z,100.00
2022-11-19T19:39:27.798Z,100.00
2022-11-19T19:41:56.580Z,100.00
2022-11-19T19:44:26.490Z,100.00
2022-11-19T19:46:57.237Z,100.00
2022-11-19T19:49:27.996Z,100.00
2022-11-19T19:51:59.115Z,100.00
2022-11-19T19:54:28.522Z,100.00
2022-11-19T19:56:57.742Z,100.00
2022-11-19T19:59:32.010Z,100.00
2022-11-19T20:02:01.828Z,100.00
2022-11-19T20:04:33.019Z,100.00
2022-11-19T20:07:08.903Z,100.00
2022-11-19T20:09:42.457Z,100.00
2022-11-19T20:12:18.097Z,100.00
2022-11-19T20:14:48.908Z,100.00
2022-11-19T20:17:19.540Z,100.00
2022-11-19T20:19:53.499Z,100.00
2022-11-19T20:22:30.283Z,100.00
2022-11-19T20:25:00.622Z,100.00
2022-11-19T20:27:32.083Z,100.00
2022-11-19T20:30:05.885Z,100.00
2022-11-19T20:32:35.431Z,100.00
2022-11-19T20:35:06.555Z,100.00
2022-11-19T20:37:37.187Z,100.00
2022-11-19T20:40:08.044Z,100.00
2022-11-19T20:42:55.590Z,100.00
2022-11-19T20:45:25.558Z,100.00
2022-11-19T20:47:56.226Z,100.00
2022-11-19T20:50:26.351Z,100.00
2022-11-19T20:52:55.613Z,100.00
2022-11-19T20:55:26.986Z,100.00
2022-11-19T20:57:57.279Z,100.00
2022-11-19T21:00:27.015Z,100.00
2022-11-19T21:03:00.584Z,100.00
2022-11-19T21:05:31.607Z,100.00
2022-11-19T21:08:01.104Z,100.00
2022-11-19T21:10:30.898Z,100.00
2022-11-19T21:13:01.753Z,100.00
2022-11-19T21:15:37.896Z,100.00
2022-11-19T21:18:06.706Z,100.00
2022-11-19T21:20:36.409Z,100.00
2022-11-19T21:23:07.086Z,100.00
2022-11-19T21:25:38.043Z,100.00
2022-11-19T21:28:07.133Z,100.00
2022-11-19T21:30:36.750Z,100.00
2022-11-19T21:33:05.365Z,100.00
2022-11-19T21:35:35.835Z,100.00
2022-11-19T21:38:12.217Z,100.00
2022-11-19T21:40:41.864Z,100.00
2022-11-19T21:43:10.785Z,100.00
2022-11-19T21:45:42.509Z,100.00
2022-11-19T21:48:11.897Z,100.00
2022-11-19T21:50:41.908Z,100.00
2022-11-19T21:53:13.295Z,100.00
2022-11-19T21:55:44.051Z,100.00
2022-11-19T21:58:14.808Z,100.00
2022-11-19T22:00:44.804Z,100.00
2022-11-19T22:03:13.465Z,100.00
2022-11-19T22:05:43.033Z,100.00
2022-11-19T22:08:12.210Z,100.00
2022-11-19T22:10:45.413Z,100.00
2022-11-19T22:13:14.636Z,100.00
2022-11-19T22:15:44.530Z,100.00
2022-11-19T22:18:14.031Z,100.00
2022-11-19T22:20:43.600Z,100.00
2022-11-19T22:23:12.967Z,100.00
2022-11-19T22:25:42.049Z,100.00
2022-11-19T22:28:11.601Z,100.00
2022-11-19T22:30:40.633Z,100.00
2022-11-19T22:33:09.237Z,100.00
2022-11-19T22:35:37.989Z,100.00
2022-11-19T22:38:06.694Z,100.00
2022-11-19T22:40:35.291Z,100.00
2022-11-19T22:43:03.743Z,100.00
2022-11-19T22:45:33.400Z,100.00
2022-11-19T22:48:01.669Z,100.00
2022-11-19T22:50:30.032Z,100.00
2022-11-19T22:52:58.510Z,100.00
2022-11-19T22:55:27.756Z,100.00
2022-11-19T22:57:56.085Z,100.00
2022-11-19T23:00:50.277Z,100.00
2022-11-19T23:03:21.256Z,100.00
2022-11-19T23:05:54.123Z,100.00
2022-11-19T23:08:23.145Z,100.00
2022-11-19T23:11:04.436Z,100.00
2022-11-19T23:13:40.367Z,100.00
2022-11-19T23:16:14.272Z,100.00
2022-11-19T23:18:52.193Z,100.00
2022-11-19T23:21:23.740Z,100.00
2022-11-19T23:23:52.477Z,100.00
2022-11-19T23:26:23.235Z,100.00
2022-11-19T23:28:53.442Z,100.00
2022-11-19T23:31:44.240Z,100.00
2022-11-19T23:34:13.605Z,100.00
2022-11-19T23:36:42.625Z,100.00
2022-11-19T23:39:16.087Z,100.00
2022-11-19T23:41:45.652Z,100.00
2022-11-19T23:44:13.912Z,100.00
2022-11-19T23:46:42.339Z,100.00
2022-11-19T23:49:11.008Z,100.00
2022-11-19T23:51:40.363Z,100.00
2022-11-19T23:54:12.682Z,100.00
2022-11-19T23:56:41.255Z,100.00
2022-11-19T23:59:09.711Z,100.00
